sensor_id;sensor_type;location;lat;lon;timestamp;temperature;humidity
17007;DHT22;8620;51.168;4.154;2023-04-24T07:01:20;10.50;99.90
17007;DHT22;8620;51.168;4.154;2023-04-24T07:03:49;10.60;99.90
17007;DHT22;8620;51.168;4.154;2023-04-24T07:06:18;10.60;99.90
17007;DHT22;8620;51.168;4.154;2023-04-24T07:08:46;10.70;99.90
17007;DHT22;8620;51.168;4.154;2023-04-24T07:11:15;10.70;99.90
17007;DHT22;8620;51.168;4.154;2023-04-24T07:13:49;10.60;99.90
17007;DHT22;8620;51.168;4.154;2023-04-24T07:16:15;10.80;99.90
17007;DHT22;8620;51.168;4.154;2023-04-24T07:18:47;10.90;99.90
17007;DHT22;8620;51.168;4.154;2023-04-24T07:21:16;10.90;99.90
17007;DHT22;8620;51.168;4.154;2023-04-24T07:23:48;11.00;99.90
17007;DHT22;8620;51.168;4.154;2023-04-24T07:26:14;11.20;99.90
17007;DHT22;8620;51.168;4.154;2023-04-24T07:28:40;11.20;99.90
17007;DHT22;8620;51.168;4.154;2023-04-24T07:31:13;11.50;99.90
17007;DHT22;8620;51.168;4.154;2023-04-24T07:33:53;11.70;99.90
17007;DHT22;8620;51.168;4.154;2023-04-24T07:36:23;11.70;99.90
17007;DHT22;8620;51.168;4.154;2023-04-24T07:38:56;11.80;99.90
17007;DHT22;8620;51.168;4.154;2023-04-24T07:41:40;12.10;99.90
17007;DHT22;8620;51.168;4.154;2023-04-24T07:44:09;12.10;99.90
17007;DHT22;8620;51.168;4.154;2023-04-24T07:46:35;11.60;99.90
17007;DHT22;8620;51.168;4.154;2023-04-24T07:49:04;11.50;99.90
17007;DHT22;8620;51.168;4.154;2023-04-24T07:51:31;11.50;99.90
17007;DHT22;8620;51.168;4.154;2023-04-24T07:53:58;11.00;99.90
17007;DHT22;8620;51.168;4.154;2023-04-24T07:56:23;11.00;99.90
17007;DHT22;8620;51.168;4.154;2023-04-24T07:59:04;11.20;99.90
17007;DHT22;8620;51.168;4.154;2023-04-24T08:01:38;11.40;99.90
17007;DHT22;8620;51.168;4.154;2023-04-24T08:04:07;11.30;99.90
17007;DHT22;8620;51.168;4.154;2023-04-24T08:06:36;11.10;99.90
17007;DHT22;8620;51.168;4.154;2023-04-24T08:09:05;11.00;99.90
17007;DHT22;8620;51.168;4.154;2023-04-24T08:11:31;11.10;99.90
17007;DHT22;8620;51.168;4.154;2023-04-24T08:14:12;11.80;99.90
17007;DHT22;8620;51.168;4.154;2023-04-24T08:16:46;12.50;99.90
17007;DHT22;8620;51.168;4.154;2023-04-24T08:19:13;13.10;99.90
17007;DHT22;8620;51.168;4.154;2023-04-24T08:28:18;12.60;99.90
17007;DHT22;8620;51.168;4.154;2023-04-24T08:30:51;12.30;99.90
17007;DHT22;8620;51.168;4.154;2023-04-24T08:33:23;12.00;99.90
17007;DHT22;8620;51.168;4.154;2023-04-24T08:35:49;12.00;99.90
17007;DHT22;8620;51.168;4.154;2023-04-24T08:38:18;11.90;99.90
17007;DHT22;8620;51.168;4.154;2023-04-24T08:40:44;12.00;99.90
17007;DHT22;8620;51.168;4.154;2023-04-24T08:43:15;12.10;99.90
17007;DHT22;8620;51.168;4.154;2023-04-24T08:45:58;11.90;99.90
17007;DHT22;8620;51.168;4.154;2023-04-24T08:48:27;11.70;99.90
17007;DHT22;8620;51.168;4.154;2023-04-24T08:50:54;11.50;99.90
17007;DHT22;8620;51.168;4.154;2023-04-24T08:53:20;11.50;99.90
17007;DHT22;8620;51.168;4.154;2023-04-24T08:55:47;11.40;99.90
17007;DHT22;8620;51.168;4.154;2023-04-24T08:58:16;11.40;99.90
17007;DHT22;8620;51.168;4.154;2023-04-24T09:00:42;11.40;99.90
17007;DHT22;8620;51.168;4.154;2023-04-24T09:03:15;11.70;99.90
17007;DHT22;8620;51.168;4.154;2023-04-24T09:05:43;12.20;99.90
17007;DHT22;8620;51.168;4.154;2023-04-24T09:08:12;12.80;99.90
17007;DHT22;8620;51.168;4.154;2023-04-24T09:10:39;13.40;99.90
17007;DHT22;8620;51.168;4.154;2023-04-24T09:13:09;14.00;99.90
17007;DHT22;8620;51.168;4.154;2023-04-24T09:15:37;14.20;99.90
17007;DHT22;8620;51.168;4.154;2023-04-24T09:18:06;14.30;99.90
17007;DHT22;8620;51.168;4.154;2023-04-24T09:20:33;13.90;99.90
17007;DHT22;8620;51.168;4.154;2023-04-24T09:23:01;13.70;99.90
17007;DHT22;8620;51.168;4.154;2023-04-24T09:25:32;13.70;99.90
17007;DHT22;8620;51.168;4.154;2023-04-24T09:28:03;13.60;99.90
17007;DHT22;8620;51.168;4.154;2023-04-24T09:30:33;13.30;99.90
17007;DHT22;8620;51.168;4.154;2023-04-24T09:33:16;13.20;99.90
17007;DHT22;8620;51.168;4.154;2023-04-24T09:35:51;13.10;99.90
17007;DHT22;8620;51.168;4.154;2023-04-24T09:38:17;13.20;99.90
17007;DHT22;8620;51.168;4.154;2023-04-24T09:41:08;13.30;99.90
17007;DHT22;8620;51.168;4.154;2023-04-24T09:43:34;13.40;99.90
17007;DHT22;8620;51.168;4.154;2023-04-24T09:46:06;13.80;99.90
17007;DHT22;8620;51.168;4.154;2023-04-24T09:48:37;13.60;99.90
17007;DHT22;8620;51.168;4.154;2023-04-24T09:51:07;13.60;99.90
17007;DHT22;8620;51.168;4.154;2023-04-24T09:53:39;13.70;99.90
17007;DHT22;8620;51.168;4.154;2023-04-24T09:56:09;13.80;99.90
17007;DHT22;8620;51.168;4.154;2023-04-24T09:58:36;14.20;99.90
17007;DHT22;8620;51.168;4.154;2023-04-24T10:01:05;14.70;99.90
17007;DHT22;8620;51.168;4.154;2023-04-24T10:03:32;14.90;99.90
17007;DHT22;8620;51.168;4.154;2023-04-24T10:05:59;14.90;99.90
17007;DHT22;8620;51.168;4.154;2023-04-24T10:08:37;14.70;99.90
17007;DHT22;8620;51.168;4.154;2023-04-24T10:11:03;14.40;99.90
17007;DHT22;8620;51.168;4.154;2023-04-24T10:13:30;14.40;99.90
17007;DHT22;8620;51.168;4.154;2023-04-24T10:16:03;14.20;99.90
17007;DHT22;8620;51.168;4.154;2023-04-24T10:18:32;14.00;99.90
17007;DHT22;8620;51.168;4.154;2023-04-24T10:33:26;11.30;99.90
17007;DHT22;8620;51.168;4.154;2023-04-24T10:35:55;11.90;99.90
17007;DHT22;8620;51.168;4.154;2023-04-24T10:38:28;12.00;99.90
17007;DHT22;8620;51.168;4.154;2023-04-24T10:41:13;11.80;99.90
17007;DHT22;8620;51.168;4.154;2023-04-24T10:43:42;11.50;99.90
17007;DHT22;8620;51.168;4.154;2023-04-24T10:46:16;12.00;99.90
17007;DHT22;8620;51.168;4.154;2023-04-24T10:48:53;12.80;99.90
17007;DHT22;8620;51.168;4.154;2023-04-24T10:51:22;12.80;99.90
17007;DHT22;8620;51.168;4.154;2023-04-24T10:53:52;13.00;99.90
17007;DHT22;8620;51.168;4.154;2023-04-24T10:56:18;12.70;99.90
17007;DHT22;8620;51.168;4.154;2023-04-24T10:58:52;12.60;99.90
17007;DHT22;8620;51.168;4.154;2023-04-24T11:01:29;13.50;99.90
17007;DHT22;8620;51.168;4.154;2023-04-24T11:03:59;14.20;99.90
17007;DHT22;8620;51.168;4.154;2023-04-24T11:06:35;14.40;99.90
17007;DHT22;8620;51.168;4.154;2023-04-24T11:09:07;14.30;99.90
17007;DHT22;8620;51.168;4.154;2023-04-24T11:11:36;14.10;99.90
17007;DHT22;8620;51.168;4.154;2023-04-24T11:14:05;13.60;99.90
17007;DHT22;8620;51.168;4.154;2023-04-24T11:16:52;13.70;99.90
17007;DHT22;8620;51.168;4.154;2023-04-24T11:19:24;14.10;99.90
17007;DHT22;8620;51.168;4.154;2023-04-24T11:22:04;14.90;99.90
17007;DHT22;8620;51.168;4.154;2023-04-24T11:27:15;14.80;99.90
17007;DHT22;8620;51.168;4.154;2023-04-24T11:29:44;15.10;99.90
17007;DHT22;8620;51.168;4.154;2023-04-24T11:35:06;14.90;99.90
17007;DHT22;8620;51.168;4.154;2023-04-24T11:37:47;14.90;99.90
17007;DHT22;8620;51.168;4.154;2023-04-24T11:40:16;14.70;99.90
17007;DHT22;8620;51.168;4.154;2023-04-24T11:42:50;14.70;99.90
17007;DHT22;8620;51.168;4.154;2023-04-24T11:45:28;14.90;99.90
17007;DHT22;8620;51.168;4.154;2023-04-24T11:47:58;14.30;99.90
17007;DHT22;8620;51.168;4.154;2023-04-24T11:50:27;14.30;99.90
17007;DHT22;8620;51.168;4.154;2023-04-24T11:52:55;14.40;99.90
17007;DHT22;8620;51.168;4.154;2023-04-24T11:57:53;13.70;99.90
17007;DHT22;8620;51.168;4.154;2023-04-24T12:00:31;13.90;99.90
17007;DHT22;8620;51.168;4.154;2023-04-24T12:03:10;14.30;99.90
17007;DHT22;8620;51.168;4.154;2023-04-24T12:05:38;14.60;99.90
17007;DHT22;8620;51.168;4.154;2023-04-24T12:08:07;14.20;99.90
17007;DHT22;8620;51.168;4.154;2023-04-24T12:10:36;13.40;99.90
17007;DHT22;8620;51.168;4.154;2023-04-24T12:13:05;13.80;99.90
17007;DHT22;8620;51.168;4.154;2023-04-24T12:15:31;14.30;99.90
17007;DHT22;8620;51.168;4.154;2023-04-24T12:17:57;14.10;99.90
17007;DHT22;8620;51.168;4.154;2023-04-24T12:20:35;13.80;99.90
17007;DHT22;8620;51.168;4.154;2023-04-24T12:23:01;14.20;99.90
17007;DHT22;8620;51.168;4.154;2023-04-24T12:25:30;14.50;99.90
17007;DHT22;8620;51.168;4.154;2023-04-24T12:30:54;15.10;99.90
17007;DHT22;8620;51.168;4.154;2023-04-24T12:33:26;15.10;99.90
17007;DHT22;8620;51.168;4.154;2023-04-24T12:35:53;15.10;99.90
17007;DHT22;8620;51.168;4.154;2023-04-24T12:38:22;15.10;99.90
17007;DHT22;8620;51.168;4.154;2023-04-24T12:41:06;15.00;99.90
17007;DHT22;8620;51.168;4.154;2023-04-24T12:43:34;15.10;99.90
17007;DHT22;8620;51.168;4.154;2023-04-24T12:46:03;15.00;99.90
17007;DHT22;8620;51.168;4.154;2023-04-24T12:48:32;14.90;99.90
17007;DHT22;8620;51.168;4.154;2023-04-24T12:50:58;14.50;99.90
17007;DHT22;8620;51.168;4.154;2023-04-24T12:53:32;14.50;99.90
17007;DHT22;8620;51.168;4.154;2023-04-24T12:56:03;14.70;99.90
17007;DHT22;8620;51.168;4.154;2023-04-24T12:58:29;14.90;99.90
17007;DHT22;8620;51.168;4.154;2023-04-24T13:00:55;15.10;99.90
17007;DHT22;8620;51.168;4.154;2023-04-24T13:03:29;15.40;99.90
17007;DHT22;8620;51.168;4.154;2023-04-24T13:06:06;15.60;99.90
17007;DHT22;8620;51.168;4.154;2023-04-24T13:08:37;15.80;99.90
17007;DHT22;8620;51.168;4.154;2023-04-24T13:11:06;15.70;99.90
17007;DHT22;8620;51.168;4.154;2023-04-24T13:13:32;15.30;99.90
17007;DHT22;8620;51.168;4.154;2023-04-24T13:15:57;15.40;99.90
17007;DHT22;8620;51.168;4.154;2023-04-24T13:18:23;15.50;99.90
17007;DHT22;8620;51.168;4.154;2023-04-24T13:20:52;15.90;99.90
17007;DHT22;8620;51.168;4.154;2023-04-24T13:23:23;16.30;99.90
17007;DHT22;8620;51.168;4.154;2023-04-24T13:25:52;15.90;99.90
17007;DHT22;8620;51.168;4.154;2023-04-24T13:28:24;15.80;99.90
17007;DHT22;8620;51.168;4.154;2023-04-24T13:30:53;14.80;99.90
17007;DHT22;8620;51.168;4.154;2023-04-24T13:33:20;14.90;99.90
17007;DHT22;8620;51.168;4.154;2023-04-24T13:35:48;15.30;99.90
17007;DHT22;8620;51.168;4.154;2023-04-24T13:38:21;15.10;99.90
17007;DHT22;8620;51.168;4.154;2023-04-24T13:40:53;15.40;99.90
17007;DHT22;8620;51.168;4.154;2023-04-24T13:43:27;15.60;99.90
17007;DHT22;8620;51.168;4.154;2023-04-24T13:46:19;15.50;99.90
17007;DHT22;8620;51.168;4.154;2023-04-24T13:48:58;15.40;99.90
17007;DHT22;8620;51.168;4.154;2023-04-24T13:51:36;15.40;99.90
17007;DHT22;8620;51.168;4.154;2023-04-24T13:54:10;15.20;99.90
17007;DHT22;8620;51.168;4.154;2023-04-24T13:56:40;15.00;99.90
17007;DHT22;8620;51.168;4.154;2023-04-24T13:59:06;14.90;99.90
17007;DHT22;8620;51.168;4.154;2023-04-24T14:01:37;15.00;99.90
17007;DHT22;8620;51.168;4.154;2023-04-24T14:04:03;15.00;99.90
17007;DHT22;8620;51.168;4.154;2023-04-24T14:06:29;15.20;99.90
17007;DHT22;8620;51.168;4.154;2023-04-24T14:09:07;15.50;99.90
17007;DHT22;8620;51.168;4.154;2023-04-24T14:11:36;15.50;99.90
17007;DHT22;8620;51.168;4.154;2023-04-24T14:14:02;15.60;99.90
17007;DHT22;8620;51.168;4.154;2023-04-24T14:16:52;15.40;99.90
17007;DHT22;8620;51.168;4.154;2023-04-24T14:19:47;15.40;99.90
17007;DHT22;8620;51.168;4.154;2023-04-24T14:22:36;15.60;99.90
17007;DHT22;8620;51.168;4.154;2023-04-24T14:28:49;15.40;99.90
17007;DHT22;8620;51.168;4.154;2023-04-24T14:31:38;15.20;99.90
17007;DHT22;8620;51.168;4.154;2023-04-24T14:34:30;15.30;99.90
17007;DHT22;8620;51.168;4.154;2023-04-24T14:37:39;15.10;99.90
17007;DHT22;8620;51.168;4.154;2023-04-24T14:43:44;15.30;99.90
17007;DHT22;8620;51.168;4.154;2023-04-24T14:46:41;15.50;99.90
17007;DHT22;8620;51.168;4.154;2023-04-24T14:49:33;15.50;99.90
17007;DHT22;8620;51.168;4.154;2023-04-24T14:52:07;15.50;99.90
17007;DHT22;8620;51.168;4.154;2023-04-24T14:55:02;15.80;99.90
17007;DHT22;8620;51.168;4.154;2023-04-24T15:03:54;15.50;99.90
17007;DHT22;8620;51.168;4.154;2023-04-24T15:06:55;15.70;99.90
17007;DHT22;8620;51.168;4.154;2023-04-24T15:09:44;15.30;99.90
17007;DHT22;8620;51.168;4.154;2023-04-24T15:12:38;15.10;99.90
17007;DHT22;8620;51.168;4.154;2023-04-24T15:15:31;14.80;99.90
17007;DHT22;8620;51.168;4.154;2023-04-24T15:18:53;14.40;99.90
17007;DHT22;8620;51.168;4.154;2023-04-24T15:21:25;14.20;99.90
17007;DHT22;8620;51.168;4.154;2023-04-24T15:24:14;14.20;99.90
17007;DHT22;8620;51.168;4.154;2023-04-24T15:27:13;14.20;99.90
17007;DHT22;8620;51.168;4.154;2023-04-24T15:30:07;14.60;99.90
17007;DHT22;8620;51.168;4.154;2023-04-24T15:32:55;14.80;99.90
17007;DHT22;8620;51.168;4.154;2023-04-24T15:35:44;14.70;99.90
17007;DHT22;8620;51.168;4.154;2023-04-24T15:38:43;14.80;99.90
17007;DHT22;8620;51.168;4.154;2023-04-24T15:41:41;14.40;99.90
17007;DHT22;8620;51.168;4.154;2023-04-24T15:44:33;14.70;99.90
17007;DHT22;8620;51.168;4.154;2023-04-24T15:47:43;14.90;99.90
17007;DHT22;8620;51.168;4.154;2023-04-24T15:50:32;14.80;99.90
17007;DHT22;8620;51.168;4.154;2023-04-24T15:53:07;14.50;99.90
17007;DHT22;8620;51.168;4.154;2023-04-24T15:56:17;14.50;99.90
17007;DHT22;8620;51.168;4.154;2023-04-24T15:59:13;14.50;99.90
17007;DHT22;8620;51.168;4.154;2023-04-24T16:01:50;14.30;99.90
17007;DHT22;8620;51.168;4.154;2023-04-24T16:04:37;14.50;99.90
17007;DHT22;8620;51.168;4.154;2023-04-24T16:07:27;14.40;99.90
17007;DHT22;8620;51.168;4.154;2023-04-24T16:10:32;14.20;99.90
17007;DHT22;8620;51.168;4.154;2023-04-24T16:13:18;14.10;99.90
17007;DHT22;8620;51.168;4.154;2023-04-24T16:16:25;14.10;99.90
17007;DHT22;8620;51.168;4.154;2023-04-24T16:18:59;13.80;99.90
17007;DHT22;8620;51.168;4.154;2023-04-24T16:21:46;13.70;99.90
17007;DHT22;8620;51.168;4.154;2023-04-24T16:24:38;13.90;99.90
17007;DHT22;8620;51.168;4.154;2023-04-24T16:27:27;14.00;99.90
17007;DHT22;8620;51.168;4.154;2023-04-24T16:33:42;13.70;99.90
17007;DHT22;8620;51.168;4.154;2023-04-24T16:36:31;14.00;99.90
17007;DHT22;8620;51.168;4.154;2023-04-24T16:39:21;14.20;99.90
17007;DHT22;8620;51.168;4.154;2023-04-24T16:42:10;14.10;99.90
17007;DHT22;8620;51.168;4.154;2023-04-24T16:45:00;13.70;99.90
17007;DHT22;8620;51.168;4.154;2023-04-24T16:54:05;13.60;99.90
17007;DHT22;8620;51.168;4.154;2023-04-24T16:57:07;12.90;99.90
17007;DHT22;8620;51.168;4.154;2023-04-24T17:00:02;12.90;99.90
17007;DHT22;8620;51.168;4.154;2023-04-24T17:03:08;13.10;99.90
17007;DHT22;8620;51.168;4.154;2023-04-24T17:06:10;13.20;99.90
17007;DHT22;8620;51.168;4.154;2023-04-24T17:09:02;13.20;99.90
17007;DHT22;8620;51.168;4.154;2023-04-24T17:15:09;12.90;99.90
17007;DHT22;8620;51.168;4.154;2023-04-24T17:18:17;13.00;99.90
17007;DHT22;8620;51.168;4.154;2023-04-24T17:21:05;13.00;99.90
17007;DHT22;8620;51.168;4.154;2023-04-24T17:23:57;13.10;99.90
17007;DHT22;8620;51.168;4.154;2023-04-24T17:27:04;13.10;99.90
17007;DHT22;8620;51.168;4.154;2023-04-24T17:30:10;13.00;99.90
17007;DHT22;8620;51.168;4.154;2023-04-24T17:33:07;12.90;99.90
17007;DHT22;8620;51.168;4.154;2023-04-24T17:35:53;12.90;99.90
17007;DHT22;8620;51.168;4.154;2023-04-24T17:38:37;12.90;99.90
17007;DHT22;8620;51.168;4.154;2023-04-24T17:41:28;12.60;99.90
17007;DHT22;8620;51.168;4.154;2023-04-24T17:44:19;12.80;99.90
17007;DHT22;8620;51.168;4.154;2023-04-24T18:00:17;13.00;99.90
17007;DHT22;8620;51.168;4.154;2023-04-24T18:06:08;12.70;99.90
17007;DHT22;8620;51.168;4.154;2023-04-24T18:08:58;12.70;99.90
17007;DHT22;8620;51.168;4.154;2023-04-24T18:11:57;12.40;99.90
17007;DHT22;8620;51.168;4.154;2023-04-24T18:14:55;12.20;99.90
17007;DHT22;8620;51.168;4.154;2023-04-24T18:18:05;12.30;99.90
17007;DHT22;8620;51.168;4.154;2023-04-24T18:21:06;12.40;99.90
17007;DHT22;8620;51.168;4.154;2023-04-24T18:23:53;12.40;99.90
17007;DHT22;8620;51.168;4.154;2023-04-24T18:29:51;12.50;99.90
17007;DHT22;8620;51.168;4.154;2023-04-24T18:32:51;12.40;99.90
17007;DHT22;8620;51.168;4.154;2023-04-24T18:39:15;12.20;99.90
17007;DHT22;8620;51.168;4.154;2023-04-24T18:42:04;12.20;99.90
17007;DHT22;8620;51.168;4.154;2023-04-24T18:44:55;12.20;99.90
17007;DHT22;8620;51.168;4.154;2023-04-24T18:48:20;12.40;99.90
17007;DHT22;8620;51.168;4.154;2023-04-24T18:51:11;12.30;99.90
17007;DHT22;8620;51.168;4.154;2023-04-24T18:54:07;12.30;99.90
17007;DHT22;8620;51.168;4.154;2023-04-24T18:57:14;12.00;99.90
17007;DHT22;8620;51.168;4.154;2023-04-24T19:00:24;12.10;99.90
17007;DHT22;8620;51.168;4.154;2023-04-24T19:06:15;11.80;99.90
17007;DHT22;8620;51.168;4.154;2023-04-24T19:09:05;11.90;99.90
17007;DHT22;8620;51.168;4.154;2023-04-24T19:12:02;12.00;99.90
17007;DHT22;8620;51.168;4.154;2023-04-24T19:14:56;11.70;99.90
17007;DHT22;8620;51.168;4.154;2023-04-24T19:17:52;11.40;99.90
17007;DHT22;8620;51.168;4.154;2023-04-24T19:24:00;11.50;99.90
17007;DHT22;8620;51.168;4.154;2023-04-24T19:26:52;11.50;99.90
17007;DHT22;8620;51.168;4.154;2023-04-24T19:29:41;11.40;99.90
17007;DHT22;8620;51.168;4.154;2023-04-24T19:32:39;11.40;99.90
17007;DHT22;8620;51.168;4.154;2023-04-24T19:35:25;11.60;99.90
17007;DHT22;8620;51.168;4.154;2023-04-24T19:38:47;11.70;99.90
17007;DHT22;8620;51.168;4.154;2023-04-24T19:41:39;11.50;99.90
17007;DHT22;8620;51.168;4.154;2023-04-24T19:44:31;11.50;99.90
17007;DHT22;8620;51.168;4.154;2023-04-24T19:47:17;11.60;99.90
17007;DHT22;8620;51.168;4.154;2023-04-24T19:50:24;11.40;99.90
17007;DHT22;8620;51.168;4.154;2023-04-24T19:53:17;11.30;99.90
17007;DHT22;8620;51.168;4.154;2023-04-24T19:56:28;11.30;99.90
17007;DHT22;8620;51.168;4.154;2023-04-24T19:59:14;11.30;99.90
17007;DHT22;8620;51.168;4.154;2023-04-24T20:02:05;11.50;99.90
17007;DHT22;8620;51.168;4.154;2023-04-24T20:04:58;11.60;99.90
17007;DHT22;8620;51.168;4.154;2023-04-24T20:14:39;11.40;99.90
17007;DHT22;8620;51.168;4.154;2023-04-24T20:17:23;11.30;99.90
17007;DHT22;8620;51.168;4.154;2023-04-24T20:20:20;11.50;99.90
17007;DHT22;8620;51.168;4.154;2023-04-24T20:23:20;11.40;99.90
17007;DHT22;8620;51.168;4.154;2023-04-24T20:25:49;11.50;99.90
17007;DHT22;8620;51.168;4.154;2023-04-24T20:28:51;11.30;99.90
17007;DHT22;8620;51.168;4.154;2023-04-24T20:31:39;11.30;99.90
17007;DHT22;8620;51.168;4.154;2023-04-24T20:37:46;11.60;99.90
17007;DHT22;8620;51.168;4.154;2023-04-24T20:43:56;11.50;99.90
17007;DHT22;8620;51.168;4.154;2023-04-24T20:46:48;11.70;99.90
17007;DHT22;8620;51.168;4.154;2023-04-24T20:49:35;11.40;99.90
17007;DHT22;8620;51.168;4.154;2023-04-24T20:52:15;11.30;99.90
17007;DHT22;8620;51.168;4.154;2023-04-24T20:54:50;11.30;99.90
17007;DHT22;8620;51.168;4.154;2023-04-24T20:58:21;11.30;99.90
